Terminal Aerodrome Forecast
Issued by NWS

Home | Current Version | Previous Version | Graphics & Text | Print | Product List | Glossary On
Versions: 1 2 3 4 5 6 7 8 9 10 11 12 13 14 15 16 17 18 19 20 21 22 23 24 25 26 27 28 29 30 31 32 33
694
FTUS43 KLOT 271516 AAB
TAFORD
TAF AMD
KORD 271516Z 2715/2818 06005KT 2SM BR OVC004
      TEMPO 2715/2716 1/2SM DZ FG OVC003
     FM271900 06007KT 6SM BR OVC007
      TEMPO 2722/2724 6SM -SHRA
     FM280100 03011KT 6SM BR FEW007 BKN015=

USA.gov is the U.S. government's official web portal to all federal, state and local government web resources and services.